createdAt,value
2022-08-05T00:02:25.694Z,22.65
2022-08-05T00:06:05.446Z,22.67
2022-08-05T00:08:51.409Z,22.61
2022-08-05T00:11:59.782Z,22.54
2022-08-05T00:15:54.225Z,22.51
2022-08-05T00:18:25.454Z,22.46
2022-08-05T00:21:31.461Z,22.38
2022-08-05T00:24:42.366Z,22.32
2022-08-05T00:27:45.235Z,22.29
2022-08-05T00:30:52.109Z,22.25
2022-08-05T00:34:56.057Z,22.21
2022-08-05T00:37:19.199Z,22.17
2022-08-05T00:40:28.142Z,22.13
2022-08-05T00:43:47.302Z,22.07
2022-08-05T00:46:54.298Z,22.00
2022-08-05T00:50:08.458Z,21.94
2022-08-05T00:53:45.154Z,21.91
2022-08-05T00:56:34.361Z,21.84
2022-08-05T00:59:44.334Z,21.78
2022-08-05T01:02:47.595Z,21.82
2022-08-05T01:05:54.864Z,21.92
2022-08-05T01:08:57.876Z,22.03
2022-08-05T01:12:18.114Z,21.92
2022-08-05T01:15:36.264Z,21.74
2022-08-05T01:18:43.519Z,21.69
2022-08-05T01:21:51.613Z,21.61
2022-08-05T01:25:11.070Z,21.75
2022-08-05T01:28:27.196Z,21.65
2022-08-05T01:31:44.662Z,21.57
2022-08-05T01:34:59.200Z,21.48
2022-08-05T01:38:04.310Z,21.42
2022-08-05T01:41:08.891Z,21.34
2022-08-05T01:44:14.145Z,21.30
2022-08-05T01:47:21.262Z,21.25
2022-08-05T01:50:50.974Z,21.25
2022-08-05T01:53:58.654Z,21.22
2022-08-05T01:58:11.868Z,21.19
2022-08-05T02:00:31.621Z,21.13
2022-08-05T02:03:38.227Z,21.14
2022-08-05T02:06:42.661Z,21.09
2022-08-05T02:09:48.194Z,21.10
2022-08-05T02:13:15.884Z,21.09
2022-08-05T02:16:52.434Z,20.99
2022-08-05T02:20:01.759Z,20.88
2022-08-05T02:23:09.561Z,20.79
2022-08-05T02:26:17.236Z,20.76
2022-08-05T02:29:24.291Z,20.69
2022-08-05T02:32:51.257Z,20.63
2022-08-05T02:35:59.135Z,20.57
2022-08-05T02:39:08.745Z,20.51
2022-08-05T02:42:11.989Z,20.47
2022-08-05T02:45:52.033Z,20.42
2022-08-05T02:48:55.291Z,20.36
2022-08-05T02:52:03.917Z,20.40
2022-08-05T02:55:10.662Z,20.37
2022-08-05T02:58:16.133Z,20.36
2022-08-05T03:01:21.635Z,20.57
2022-08-05T03:04:25.669Z,20.49
2022-08-05T03:07:59.322Z,20.48
2022-08-05T03:11:53.288Z,20.44
2022-08-05T03:14:14.446Z,20.33
2022-08-05T03:17:17.522Z,20.25
2022-08-05T03:20:24.505Z,20.20
2022-08-05T03:23:28.281Z,20.12
2022-08-05T03:26:32.782Z,20.05
2022-08-05T03:29:45.972Z,20.01
2022-08-05T03:33:00.095Z,19.96
2022-08-05T03:36:03.972Z,19.93
2022-08-05T03:39:20.183Z,19.94
2022-08-05T03:42:31.958Z,19.94
2022-08-05T03:45:57.754Z,19.95
2022-08-05T03:48:58.949Z,19.96
2022-08-05T03:52:48.658Z,19.96
2022-08-05T03:56:09.629Z,20.11
2022-08-05T03:59:02.962Z,20.14
2022-08-05T04:02:06.492Z,20.15
2022-08-05T04:05:10.781Z,20.14
2022-08-05T04:08:34.982Z,20.16
2022-08-05T04:11:47.239Z,20.23
2022-08-05T04:14:54.252Z,20.30
2022-08-05T04:18:06.805Z,20.34
2022-08-05T04:21:11.134Z,20.56
2022-08-05T04:24:19.162Z,20.57
2022-08-05T04:27:41.633Z,20.61
2022-08-05T04:30:47.186Z,20.67
2022-08-05T04:34:17.928Z,20.79
2022-08-05T04:37:13.507Z,20.88
2022-08-05T04:40:19.658Z,20.92
2022-08-05T04:43:22.604Z,21.15
2022-08-05T04:46:28.756Z,21.17
2022-08-05T04:49:38.807Z,21.28
2022-08-05T04:52:54.082Z,21.35
2022-08-05T04:56:34.017Z,21.54
2022-08-05T04:59:21.755Z,21.51
2022-08-05T05:02:36.795Z,21.59
2022-08-05T05:06:40.779Z,21.69
2022-08-05T05:09:05.509Z,21.74
2022-08-05T05:12:08.630Z,21.88
2022-08-05T05:15:11.617Z,22.00
2022-08-05T05:18:31.234Z,22.14
2022-08-05T05:21:36.441Z,22.29
2022-08-05T05:24:58.186Z,22.48
2022-08-05T05:28:02.201Z,22.60
2022-08-05T05:31:05.660Z,22.67
2022-08-05T05:34:11.670Z,22.76
2022-08-05T05:37:15.160Z,22.93
2022-08-05T05:40:20.379Z,23.07
2022-08-05T05:43:58.200Z,23.16
2022-08-05T05:46:51.557Z,23.30
2022-08-05T05:50:01.290Z,23.35
2022-08-05T05:53:20.866Z,23.37
2022-08-05T05:56:33.306Z,23.34
2022-08-05T05:59:40.119Z,23.50
2022-08-05T06:02:43.814Z,23.65
2022-08-05T06:05:54.187Z,23.86
2022-08-05T06:08:58.721Z,23.88
2022-08-05T06:12:02.731Z,23.98
2022-08-05T06:15:08.063Z,24.11
2022-08-05T06:18:11.129Z,24.31
2022-08-05T06:21:16.632Z,24.42
2022-08-05T06:24:25.722Z,24.62
2022-08-05T06:28:11.283Z,24.73
2022-08-05T06:30:52.678Z,24.79
2022-08-05T06:34:06.985Z,24.90
2022-08-05T06:37:11.720Z,25.02
2022-08-05T06:40:21.082Z,25.06
2022-08-05T06:43:57.478Z,25.25
2022-08-05T06:46:46.983Z,25.50
2022-08-05T06:50:00.165Z,25.72
2022-08-05T06:53:11.705Z,25.93
2022-08-05T06:56:27.148Z,26.22
2022-08-05T06:59:29.831Z,26.43
2022-08-05T07:02:47.429Z,26.72
2022-08-05T07:05:56.424Z,27.09
2022-08-05T07:09:04.016Z,27.49
2022-08-05T07:12:07.630Z,27.76
2022-08-05T07:15:34.799Z,28.11
2022-08-05T07:18:52.443Z,28.48
2022-08-05T07:22:00.920Z,29.12
2022-08-05T07:25:22.416Z,30.13
2022-08-05T07:28:29.754Z,30.63
2022-08-05T07:31:54.065Z,31.45
2022-08-05T07:34:57.801Z,32.29
2022-08-05T07:38:04.176Z,32.98
2022-08-05T07:42:08.331Z,33.56
2022-08-05T07:44:32.723Z,33.92
2022-08-05T07:47:42.621Z,34.55
2022-08-05T07:50:45.473Z,34.80
2022-08-05T07:53:50.507Z,35.06
2022-08-05T07:57:14.844Z,34.99
2022-08-05T08:00:17.576Z,35.34
2022-08-05T08:03:21.556Z,34.63
2022-08-05T08:06:28.100Z,34.94
2022-08-05T08:09:31.334Z,35.92
2022-08-05T08:12:48.669Z,36.61
2022-08-05T08:16:35.473Z,34.72
2022-08-05T08:19:37.912Z,35.40
2022-08-05T08:22:38.124Z,36.53
2022-08-05T08:25:59.810Z,37.29
2022-08-05T08:29:45.465Z,37.80
2022-08-05T08:32:28.200Z,38.03
2022-08-05T08:35:35.239Z,37.72
2022-08-05T08:38:44.179Z,37.65
2022-08-05T08:41:59.813Z,38.46
2022-08-05T08:45:23.751Z,37.55
2022-08-05T08:49:03.308Z,38.21
2022-08-05T08:52:14.240Z,37.96
2022-08-05T08:55:19.334Z,36.34
2022-08-05T08:58:44.626Z,38.22
2022-08-05T09:01:57.345Z,38.94
2022-08-05T09:05:17.798Z,38.96
2022-08-05T09:08:26.592Z,38.88
2022-08-05T09:11:50.685Z,40.09
2022-08-05T09:14:59.434Z,40.46
2022-08-05T09:18:10.216Z,39.16
2022-08-05T09:21:21.209Z,40.45
2022-08-05T09:24:38.738Z,40.75
2022-08-05T09:28:05.497Z,39.66
2022-08-05T09:31:44.110Z,41.70
2022-08-05T09:34:46.581Z,43.06
2022-08-05T09:38:16.536Z,42.80
2022-08-05T09:41:16.080Z,43.36
2022-08-05T09:44:40.023Z,42.14
2022-08-05T09:47:49.018Z,43.31
2022-08-05T09:51:15.282Z,43.06
2022-08-05T09:54:31.639Z,43.51
2022-08-05T09:57:35.361Z,43.73
2022-08-05T10:00:53.439Z,42.94
2022-08-05T10:04:16.022Z,41.82
2022-08-05T10:08:10.756Z,40.75
2022-08-05T10:10:44.300Z,42.20
2022-08-05T10:13:49.222Z,43.00
2022-08-05T10:16:56.194Z,44.36
2022-08-05T10:20:04.518Z,44.51
2022-08-05T10:23:55.418Z,45.20
2022-08-05T10:26:52.808Z,42.05
2022-08-05T10:30:41.829Z,41.88
2022-08-05T10:33:18.416Z,42.35
2022-08-05T10:36:23.581Z,45.08
2022-08-05T10:40:03.063Z,44.90
2022-08-05T10:43:00.863Z,45.37
2022-08-05T10:46:08.983Z,47.06
2022-08-05T10:49:16.776Z,46.40
2022-08-05T10:52:49.832Z,46.51
2022-08-05T10:56:14.529Z,46.49
2022-08-05T11:00:02.484Z,47.46
2022-08-05T11:03:22.821Z,46.59
2022-08-05T11:06:30.816Z,46.16
2022-08-05T11:09:46.206Z,46.25
2022-08-05T11:12:54.385Z,46.75
2022-08-05T11:16:21.635Z,48.01
2022-08-05T11:20:11.015Z,48.96
2022-08-05T11:22:53.986Z,48.38
2022-08-05T11:26:09.346Z,47.85
2022-08-05T11:29:37.616Z,46.74
2022-08-05T11:32:40.168Z,47.18
2022-08-05T11:36:08.170Z,48.29
2022-08-05T11:39:14.740Z,49.75
2022-08-05T11:42:24.188Z,47.71
2022-08-05T11:46:27.419Z,47.08
2022-08-05T11:48:54.507Z,48.92
2022-08-05T11:51:57.914Z,49.00
2022-08-05T11:55:07.409Z,50.44
2022-08-05T11:58:12.003Z,50.05
2022-08-05T12:01:19.111Z,51.14
2022-08-05T12:04:23.156Z,51.55
2022-08-05T12:08:10.329Z,52.02
2022-08-05T12:11:03.424Z,50.49
2022-08-05T12:14:10.296Z,49.60
2022-08-05T12:18:02.774Z,47.73
2022-08-05T12:20:38.914Z,48.63
2022-08-05T12:24:11.489Z,46.95
2022-08-05T12:27:32.758Z,48.32
2022-08-05T12:30:38.723Z,48.80
2022-08-05T12:33:50.704Z,47.79
2022-08-05T12:36:58.758Z,47.83
2022-08-05T12:40:03.118Z,47.86
2022-08-05T12:43:07.715Z,49.55
2022-08-05T12:46:28.074Z,52.53
2022-08-05T12:50:03.315Z,51.43
2022-08-05T12:53:16.530Z,52.80
2022-08-05T12:56:34.138Z,51.61
2022-08-05T13:00:09.076Z,50.26
2022-08-05T13:03:13.639Z,51.59
2022-08-05T13:06:18.125Z,52.35
2022-08-05T13:09:28.326Z,53.28
2022-08-05T13:12:31.470Z,50.52
2022-08-05T13:15:41.449Z,49.31
2022-08-05T13:18:58.818Z,50.48
2022-08-05T13:22:01.937Z,51.84
2022-08-05T13:25:18.740Z,54.01
2022-08-05T13:28:22.572Z,53.36
2022-08-05T13:31:34.018Z,50.18
2022-08-05T13:34:50.154Z,49.56
2022-08-05T13:37:55.336Z,50.82
2022-08-05T13:41:00.516Z,51.32
2022-08-05T13:44:03.549Z,50.90
2022-08-05T13:47:09.083Z,50.19
2022-08-05T13:50:16.477Z,51.14
2022-08-05T13:53:19.796Z,52.85
2022-08-05T13:56:22.603Z,54.10
2022-08-05T13:59:27.029Z,51.39
2022-08-05T14:02:31.342Z,52.11
2022-08-05T14:06:04.749Z,53.46
2022-08-05T14:08:59.484Z,54.51
2022-08-05T14:12:17.766Z,52.19
2022-08-05T14:16:05.294Z,52.78
2022-08-05T14:18:43.747Z,51.08
2022-08-05T14:22:08.775Z,50.72
2022-08-05T14:25:21.858Z,48.87
2022-08-05T14:28:27.021Z,47.61
2022-08-05T14:31:54.241Z,47.36
2022-08-05T14:34:54.707Z,43.04
2022-08-05T14:38:01.107Z,40.41
2022-08-05T14:41:07.454Z,40.25
2022-08-05T14:44:20.733Z,39.14
2022-08-05T14:48:02.614Z,38.70
2022-08-05T14:50:47.889Z,38.14
2022-08-05T14:54:28.681Z,37.87
2022-08-05T14:57:15.078Z,37.79
2022-08-05T15:00:20.027Z,37.86
2022-08-05T15:03:22.972Z,37.89
2022-08-05T15:06:27.943Z,38.01
2022-08-05T15:09:51.224Z,39.00
2022-08-05T15:13:01.121Z,42.49
2022-08-05T15:16:06.691Z,45.07
2022-08-05T15:19:23.192Z,45.16
2022-08-05T15:22:28.106Z,42.89
2022-08-05T15:25:41.070Z,40.52
2022-08-05T15:28:53.946Z,39.97
2022-08-05T15:31:56.482Z,43.26
2022-08-05T15:34:59.359Z,43.46
2022-08-05T15:38:34.811Z,41.63
2022-08-05T15:41:56.387Z,38.39
2022-08-05T15:44:54.832Z,37.33
2022-08-05T15:47:57.744Z,36.36
2022-08-05T15:51:05.608Z,35.83
2022-08-05T15:54:09.061Z,35.51
2022-08-05T15:57:19.777Z,35.41
2022-08-05T16:00:26.525Z,35.20
2022-08-05T16:03:33.971Z,35.07
2022-08-05T16:06:36.926Z,34.91
2022-08-05T16:09:41.741Z,34.75
2022-08-05T16:12:44.477Z,34.85
2022-08-05T16:15:47.609Z,35.02
2022-08-05T16:18:51.921Z,35.48
2022-08-05T16:22:00.854Z,38.12
2022-08-05T16:25:09.417Z,39.42
2022-08-05T16:28:14.148Z,38.55
2022-08-05T16:31:18.321Z,36.85
2022-08-05T16:34:22.881Z,35.82
2022-08-05T16:38:03.119Z,36.61
2022-08-05T16:40:55.730Z,39.44
2022-08-05T16:44:06.468Z,40.11
2022-08-05T16:47:28.609Z,37.83
2022-08-05T16:50:32.175Z,38.32
2022-08-05T16:54:05.728Z,39.28
2022-08-05T16:57:53.077Z,37.99
2022-08-05T17:00:52.362Z,36.19
2022-08-05T17:03:54.980Z,34.85
2022-08-05T17:07:01.150Z,34.07
2022-08-05T17:10:11.029Z,33.50
2022-08-05T17:13:16.928Z,33.04
2022-08-05T17:16:30.129Z,32.69
2022-08-05T17:19:36.369Z,32.49
2022-08-05T17:22:39.170Z,32.30
2022-08-05T17:25:42.228Z,32.03
2022-08-05T17:28:47.134Z,31.79
2022-08-05T17:31:58.509Z,31.60
2022-08-05T17:35:02.215Z,31.36
2022-08-05T17:38:09.452Z,31.12
2022-08-05T17:42:16.854Z,30.91
2022-08-05T17:44:35.962Z,30.70
2022-08-05T17:47:39.066Z,30.48
2022-08-05T17:50:42.817Z,30.35
2022-08-05T17:53:45.931Z,30.23
2022-08-05T17:56:57.299Z,30.17
2022-08-05T18:00:03.483Z,30.08
2022-08-05T18:03:09.085Z,29.93
2022-08-05T18:06:15.526Z,29.79
2022-08-05T18:09:18.569Z,29.64
2022-08-05T18:12:24.526Z,29.56
2022-08-05T18:15:27.837Z,29.48
2022-08-05T18:18:34.056Z,29.39
2022-08-05T18:22:09.438Z,29.31
2022-08-05T18:25:06.538Z,29.23
2022-08-05T18:28:10.029Z,29.13
2022-08-05T18:31:12.719Z,29.03
2022-08-05T18:34:21.727Z,28.94
2022-08-05T18:37:34.184Z,28.85
2022-08-05T18:41:55.881Z,28.73
2022-08-05T18:44:05.440Z,28.64
2022-08-05T18:47:09.449Z,28.56
2022-08-05T18:50:45.069Z,28.41
2022-08-05T18:53:50.842Z,28.32
2022-08-05T18:56:53.653Z,28.21
2022-08-05T19:00:03.276Z,28.09
2022-08-05T19:03:06.907Z,28.01
2022-08-05T19:06:18.909Z,27.92
2022-08-05T19:09:25.300Z,27.85
2022-08-05T19:12:32.221Z,27.77
2022-08-05T19:15:57.194Z,27.71
2022-08-05T19:18:57.960Z,27.59
2022-08-05T19:22:00.493Z,27.50
2022-08-05T19:25:04.207Z,27.47
2022-08-05T19:28:06.853Z,27.39
2022-08-05T19:31:17.750Z,27.32
2022-08-05T19:34:22.591Z,27.23
2022-08-05T19:37:35.073Z,27.15
2022-08-05T19:40:49.053Z,27.09
2022-08-05T19:44:05.423Z,27.01
2022-08-05T19:47:16.476Z,27.02
2022-08-05T19:50:20.093Z,27.62
2022-08-05T19:54:04.524Z,27.78
2022-08-05T19:56:45.749Z,27.69
2022-08-05T19:59:55.953Z,27.52
2022-08-05T20:03:13.915Z,27.40
2022-08-05T20:06:29.132Z,27.25
2022-08-05T20:09:54.080Z,27.11
2022-08-05T20:12:55.283Z,27.00
2022-08-05T20:15:58.074Z,26.90
2022-08-05T20:19:03.358Z,26.82
2022-08-05T20:22:05.888Z,26.79
2022-08-05T20:25:12.505Z,26.77
2022-08-05T20:28:15.072Z,26.71
2022-08-05T20:31:22.876Z,26.81
2022-08-05T20:34:31.057Z,26.73
2022-08-05T20:38:06.208Z,26.63
2022-08-05T20:40:56.997Z,26.51
2022-08-05T20:44:05.185Z,26.41
2022-08-05T20:47:20.596Z,26.31
2022-08-05T20:50:34.700Z,26.22
2022-08-05T20:53:40.934Z,26.09
2022-08-05T20:56:43.954Z,26.03
2022-08-05T21:00:19.550Z,25.92
2022-08-05T21:03:09.621Z,25.83
2022-08-05T21:06:27.531Z,25.74
2022-08-05T21:09:31.602Z,25.69
2022-08-05T21:12:36.734Z,25.59
2022-08-05T21:15:41.931Z,25.51
2022-08-05T21:18:54.306Z,25.46
2022-08-05T21:21:58.283Z,25.39
2022-08-05T21:25:00.934Z,25.34
2022-08-05T21:28:04.010Z,25.27
2022-08-05T21:31:06.597Z,25.23
2022-08-05T21:34:10.454Z,25.21
2022-08-05T21:37:13.614Z,25.15
2022-08-05T21:40:16.782Z,25.08
2022-08-05T21:43:24.449Z,25.05
2022-08-05T21:46:28.557Z,25.01
2022-08-05T21:49:58.770Z,24.94
2022-08-05T21:52:58.812Z,24.90
2022-08-05T21:56:16.909Z,24.85
2022-08-05T21:59:25.106Z,24.80
2022-08-05T22:02:33.081Z,24.72
2022-08-05T22:05:48.869Z,24.66
2022-08-05T22:08:52.472Z,24.57
2022-08-05T22:11:55.828Z,24.60
2022-08-05T22:14:59.790Z,24.59
2022-08-05T22:18:03.149Z,24.57
2022-08-05T22:21:18.828Z,24.54
2022-08-05T22:24:52.413Z,24.52
2022-08-05T22:28:09.152Z,24.52
2022-08-05T22:31:13.066Z,24.49
2022-08-05T22:34:25.699Z,24.42
2022-08-05T22:37:59.013Z,24.40
2022-08-05T22:40:55.142Z,24.36
2022-08-05T22:43:59.361Z,24.27
2022-08-05T22:47:05.725Z,24.23
2022-08-05T22:50:22.903Z,24.19
2022-08-05T22:53:35.917Z,24.15
2022-08-05T22:56:40.098Z,24.07
2022-08-05T22:59:51.794Z,24.01
2022-08-05T23:02:57.127Z,24.02
2022-08-05T23:06:01.010Z,23.93
2022-08-05T23:09:27.308Z,23.83
2022-08-05T23:12:28.607Z,23.81
2022-08-05T23:15:35.227Z,23.79
2022-08-05T23:18:39.283Z,23.71
2022-08-05T23:21:48.382Z,23.62
2022-08-05T23:24:51.708Z,23.57
2022-08-05T23:28:00.249Z,23.51
2022-08-05T23:31:16.942Z,23.47
2022-08-05T23:34:24.557Z,23.41
2022-08-05T23:37:27.515Z,23.38
2022-08-05T23:40:39.797Z,23.37
2022-08-05T23:44:05.389Z,23.33
2022-08-05T23:47:15.119Z,23.28
2022-08-05T23:50:20.271Z,23.23
2022-08-05T23:53:23.355Z,23.16
2022-08-05T23:56:31.365Z,23.16
